createdAt,value
2023-05-18T00:02:31.983Z,12.7
2023-05-18T00:08:22.503Z,15.2
2023-05-18T00:14:12.737Z,14
2023-05-18T00:20:04.524Z,13.8
2023-05-18T00:25:57.068Z,12.5
2023-05-18T00:31:51.503Z,12.7
2023-05-18T00:37:44.033Z,13.6
2023-05-18T00:43:36.324Z,12.4
2023-05-18T00:49:28.636Z,12
2023-05-18T00:55:19.973Z,14
2023-05-18T01:01:11.716Z,13.6
2023-05-18T01:07:05.657Z,12.7
2023-05-18T01:12:58.783Z,12.6
2023-05-18T01:18:51.452Z,14.6
2023-05-18T01:24:44.543Z,13.1
2023-05-18T01:30:37.591Z,15.3
2023-05-18T01:36:30.525Z,13
2023-05-18T01:42:22.987Z,13.1
2023-05-18T01:48:16.393Z,13.6
2023-05-18T01:54:08.465Z,12.7
2023-05-18T02:00:02.456Z,13.9
2023-05-18T02:05:54.177Z,11
2023-05-18T02:11:46.208Z,11.2
2023-05-18T02:17:38.175Z,11.6
2023-05-18T02:23:30.873Z,12.4
2023-05-18T02:29:22.969Z,10.3
2023-05-18T02:35:15.819Z,11.5
2023-05-18T02:41:09.420Z,12.6
2023-05-18T02:47:03.365Z,11.8
2023-05-18T02:52:55.029Z,12.5
2023-05-18T02:58:46.504Z,12.5
2023-05-18T03:04:39.726Z,10.3
2023-05-18T03:10:31.411Z,9.6
2023-05-18T03:16:23.617Z,10.7
2023-05-18T03:22:16.389Z,10.3
2023-05-18T03:28:09.388Z,9.7
2023-05-18T03:34:01.241Z,10.7
2023-05-18T03:39:53.806Z,10.6
2023-05-18T03:45:46.333Z,8.7
2023-05-18T03:51:39.476Z,11.7
2023-05-18T03:57:34.350Z,12
2023-05-18T04:03:26.623Z,11.1
2023-05-18T04:09:19.980Z,9.9
2023-05-18T04:15:12.230Z,12.4
2023-05-18T04:21:04.214Z,10.9
2023-05-18T04:26:56.060Z,11.1
2023-05-18T04:32:48.607Z,12.1
2023-05-18T04:38:40.575Z,10.6
2023-05-18T04:44:32.640Z,11.6
2023-05-18T04:50:26.034Z,11.4
2023-05-18T04:56:18.241Z,9.9
2023-05-18T05:02:10.274Z,12.4
2023-05-18T05:08:02.587Z,11.1
2023-05-18T05:13:55.062Z,12.9
2023-05-18T05:19:47.213Z,12.2
2023-05-18T05:25:39.448Z,13.8
2023-05-18T05:31:31.419Z,13.5
2023-05-18T05:37:23.946Z,14.2
2023-05-18T05:43:17.007Z,12.7
2023-05-18T05:49:11.775Z,12.5
2023-05-18T05:55:05.435Z,13.7
2023-05-18T06:00:58.323Z,14.1
2023-05-18T06:06:51.542Z,13.7
2023-05-18T06:12:43.810Z,11.8
2023-05-18T06:18:37.024Z,13.8
2023-05-18T06:24:25.434Z,12
2023-05-18T06:30:16.743Z,12.1
2023-05-18T06:36:13.689Z,14.4
2023-05-18T06:42:04.884Z,14.3
2023-05-18T06:47:58.196Z,11.2
2023-05-18T06:53:50.472Z,14.1
2023-05-18T06:59:42.394Z,13.6
2023-05-18T07:05:39.453Z,12.4
2023-05-18T07:11:34.711Z,12.2
2023-05-18T07:17:27.012Z,14.1
2023-05-18T07:23:20.077Z,19.4
2023-05-18T07:29:12.543Z,10.5
2023-05-18T07:35:04.416Z,17.7
2023-05-18T07:41:06.955Z,10.4
2023-05-18T07:46:57.305Z,14.1
2023-05-18T07:52:50.018Z,11.5
2023-05-18T07:58:42.160Z,12.3
2023-05-18T08:04:36.099Z,13.1
2023-05-18T08:10:28.617Z,13.5
2023-05-18T08:16:22.069Z,11.1
2023-05-18T08:23:23.652Z,11
2023-05-18T08:29:16.624Z,11
2023-05-18T08:35:08.469Z,13.2
2023-05-18T08:41:01.272Z,13.1
2023-05-18T08:46:57.856Z,9.5
2023-05-18T08:52:49.490Z,14.3
2023-05-18T08:58:41.559Z,10.1
2023-05-18T09:04:34.724Z,14
2023-05-18T09:10:27.198Z,13.4
2023-05-18T09:16:19.906Z,9.3
2023-05-18T09:22:12.275Z,10.9
2023-05-18T09:28:04.600Z,10.4
2023-05-18T09:33:57.195Z,11.1
2023-05-18T09:39:49.328Z,11.4
2023-05-18T09:45:41.202Z,8.6
2023-05-18T09:51:33.551Z,9.9
2023-05-18T09:57:25.779Z,10
2023-05-18T10:03:17.389Z,10.8
2023-05-18T10:10:14.594Z,10.6
2023-05-18T10:16:05.503Z,12.7
2023-05-18T10:21:57.382Z,9.5
2023-05-18T10:27:49.330Z,8.9
2023-05-18T10:33:41.916Z,10.6
2023-05-18T10:39:33.351Z,9.6
2023-05-18T10:45:25.495Z,11.1
2023-05-18T10:51:17.707Z,10.1
2023-05-18T10:57:10.290Z,10.8
2023-05-18T11:03:02.249Z,9.5
2023-05-18T11:08:54.613Z,9.8
2023-05-18T11:14:44.432Z,9.3
2023-05-18T11:20:37.103Z,12.9
2023-05-18T11:26:28.482Z,10.3
2023-05-18T11:32:34.073Z,9.6
2023-05-18T11:38:24.885Z,12.1
2023-05-18T11:44:17.859Z,9.1
2023-05-18T11:50:10.389Z,12
2023-05-18T11:56:03.124Z,10
2023-05-18T12:01:56.188Z,7.5
2023-05-18T12:07:47.589Z,10.2
2023-05-18T12:13:39.094Z,10.5
2023-05-18T12:19:29.857Z,8.1
2023-05-18T12:25:22.001Z,9.1
2023-05-18T12:31:14.259Z,8.7
2023-05-18T12:37:06.317Z,9.4
2023-05-18T12:42:58.429Z,6.5
2023-05-18T12:48:50.390Z,7.4
2023-05-18T12:54:42.624Z,9.3
2023-05-18T13:00:34.734Z,9.9
2023-05-18T13:06:26.781Z,10.3
2023-05-18T13:12:21.338Z,8.3
2023-05-18T13:18:13.770Z,8
2023-05-18T13:24:05.548Z,10.6
2023-05-18T13:29:57.870Z,10.2
2023-05-18T13:35:50.337Z,8
2023-05-18T13:41:43.201Z,8.4
2023-05-18T13:47:35.210Z,7.2
2023-05-18T13:53:27.412Z,8
2023-05-18T13:59:19.436Z,9.8
2023-05-18T14:05:12.127Z,8.6
2023-05-18T14:11:05.727Z,7.7
2023-05-18T14:16:58.762Z,7.8
2023-05-18T14:22:53.663Z,10.1
2023-05-18T14:28:45.091Z,9.9
2023-05-18T14:34:36.343Z,7.4
2023-05-18T14:40:29.933Z,9.3
2023-05-18T14:46:23.244Z,9.2
2023-05-18T14:52:18.136Z,9.8
2023-05-18T14:58:10.271Z,7.9
2023-05-18T15:04:06.911Z,6.7
2023-05-18T15:09:59.244Z,8.2
2023-05-18T15:15:51.397Z,8.2
2023-05-18T15:21:43.375Z,7.7
2023-05-18T15:27:35.456Z,7.4
2023-05-18T15:33:27.690Z,7.1
2023-05-18T15:39:19.769Z,11.8
2023-05-18T15:45:12.538Z,8
2023-05-18T15:51:04.994Z,8.5
2023-05-18T15:56:57.075Z,7.9
2023-05-18T16:02:49.881Z,7.8
2023-05-18T16:08:42.276Z,6.7
2023-05-18T16:14:34.718Z,8.9
2023-05-18T16:20:26.648Z,7.8
2023-05-18T16:26:19.185Z,7.3
2023-05-18T16:32:11.140Z,6.9
2023-05-18T16:38:03.896Z,7.5
2023-05-18T16:43:56.488Z,7.8
2023-05-18T16:50:58.369Z,9
2023-05-18T16:56:51.986Z,7.4
2023-05-18T17:02:44.402Z,6.2
2023-05-18T17:08:34.488Z,9.1
2023-05-18T17:14:27.633Z,8.3
2023-05-18T17:20:21.789Z,8.3
2023-05-18T17:26:15.125Z,7.7
2023-05-18T17:32:08.424Z,7.3
2023-05-18T17:38:00.322Z,10.1
2023-05-18T17:43:53.657Z,9.6
2023-05-18T17:49:47.517Z,9.5
2023-05-18T17:55:38.751Z,8.5
2023-05-18T18:01:32.751Z,8.7
2023-05-18T18:07:24.763Z,11.3
2023-05-18T18:13:16.797Z,10.6
2023-05-18T18:19:08.375Z,9
2023-05-18T18:25:02.140Z,9.6
2023-05-18T18:30:53.966Z,10.1
2023-05-18T18:36:47.710Z,7.7
2023-05-18T18:42:40.663Z,10.7
2023-05-18T18:48:33.979Z,10.9
2023-05-18T18:54:27.731Z,8.3
2023-05-18T19:00:20.818Z,10.5
2023-05-18T19:06:13.233Z,11.3
2023-05-18T19:12:06.173Z,10.6
2023-05-18T19:18:00.043Z,12.7
2023-05-18T19:23:51.172Z,10.7
2023-05-18T19:29:43.107Z,9.7
2023-05-18T19:35:35.721Z,9.5
2023-05-18T19:41:30.433Z,11.3
2023-05-18T19:47:23.777Z,8.5
2023-05-18T19:53:17.814Z,9.9
2023-05-18T19:59:09.478Z,9.7
2023-05-18T20:05:03.099Z,16.3
2023-05-18T20:10:56.183Z,10.2
2023-05-18T20:16:50.161Z,11.3
2023-05-18T20:22:43.287Z,13.9
2023-05-18T20:28:36.119Z,11.3
2023-05-18T20:34:28.192Z,8.5
2023-05-18T20:40:24.377Z,8.2
2023-05-18T20:46:17.767Z,9.3
2023-05-18T20:52:11.561Z,10.9
2023-05-18T20:58:03.832Z,7.6
2023-05-18T21:03:57.245Z,9.5
2023-05-18T21:09:49.960Z,7.7
2023-05-18T21:15:43.813Z,6.7
2023-05-18T21:21:35.329Z,6.7
2023-05-18T21:27:26.455Z,7.2
2023-05-18T21:33:18.911Z,8.1
2023-05-18T21:39:10.614Z,6.7
2023-05-18T21:45:03.739Z,6.9
2023-05-18T21:50:56.156Z,6.6
2023-05-18T21:56:48.230Z,9
2023-05-18T22:02:39.577Z,10.9
2023-05-18T22:08:31.529Z,9.8
2023-05-18T22:14:23.965Z,9.7
2023-05-18T22:20:24.185Z,9
2023-05-18T22:26:15.730Z,7.1
2023-05-18T22:32:07.885Z,7.8
2023-05-18T22:37:59.686Z,6.5
2023-05-18T22:43:52.310Z,6.8
2023-05-18T22:49:43.755Z,6.8
2023-05-18T22:55:35.633Z,9.5
2023-05-18T23:01:27.485Z,6.5
2023-05-18T23:07:18.527Z,8.6
2023-05-18T23:13:10.665Z,6.4
2023-05-18T23:19:03.528Z,9
2023-05-18T23:24:55.465Z,7.3
2023-05-18T23:30:47.123Z,8.3
2023-05-18T23:36:39.469Z,6.5
2023-05-18T23:42:29.284Z,8.8
2023-05-18T23:48:21.173Z,7.6
2023-05-18T23:54:12.929Z,8.3
